Time;durP1;ratioP1;P1;durP2;ratioP2;P2;SDS_P1;SDS_P2;PMS_P1;PMS_P2;Temp;Humidity;BMP_temperature;BMP_pressure;BME280_temperature;BME280_humidity;BME280_pressure;Samples;Min_cycle;Max_cycle;Signal;HPM_P1;HPM_P2
2023/01/22 09:37:46;;;;;;;16.13;11.00;;;-1.90;99.90;;;;;;5128945;27;20379;-84
2023/01/22 09:41:46;;;;;;;16.47;10.20;;;-1.70;99.90;;;;;;5141310;27;20275;-84
2023/01/22 09:45:41;;;;;;;16.37;10.10;;;;;;;;;;5140563;27;20299;-84
2023/01/22 09:50:43;;;;;;;16.97;11.33;;;-1.30;99.90;;;;;;5134693;27;20544;-83
2023/01/22 09:53:13;;;;;;;18.80;11.53;;;-1.20;99.90;;;;;;5127101;28;20414;-83
2023/01/22 09:55:49;;;;;;;16.27;10.10;;;-1.20;99.90;;;;;;5116492;28;20425;-84
2023/01/22 09:58:50;;;;;;;16.77;10.97;;;-1.30;99.90;;;;;;5152885;27;20273;-84
2023/01/22 10:03:02;;;;;;;17.07;11.67;;;-1.30;99.90;;;;;;5141054;27;20267;-84
2023/01/22 10:06:48;;;;;;;21.00;13.70;;;-0.30;99.90;;;;;;5103135;27;20358;-84
2023/01/22 10:09:17;;;;;;;37.87;31.20;;;-1.20;99.90;;;;;;5060188;28;20424;-83
2023/01/22 10:13:52;;;;;;;20.33;12.03;;;0.60;99.90;;;;;;5118317;27;20347;-83
2023/01/22 10:16:17;;;;;;;17.50;12.50;;;-0.90;99.90;;;;;;5119209;28;20401;-83
2023/01/22 10:19:57;;;;;;;19.80;12.83;;;-0.90;99.90;;;;;;5140635;27;20287;-84
2023/01/22 10:23:57;;;;;;;18.90;12.43;;;-1.20;99.90;;;;;;5089962;27;20562;-85
2023/01/22 10:26:34;;;;;;;21.07;12.37;;;-1.20;99.90;;;;;;5098403;28;20425;-84
2023/01/22 10:29:57;;;;;;;20.53;13.07;;;-1.20;99.90;;;;;;5142078;27;20295;-84
2023/01/22 10:34:19;;;;;;;19.50;13.03;;;-1.00;99.90;;;;;;5079999;28;20589;-83
2023/01/22 10:39:14;;;;;;;18.97;13.00;;;-1.00;99.90;;;;;;5138132;27;20277;-81
2023/01/22 10:41:46;;;;;;;18.10;12.23;;;-1.00;99.90;;;;;;5098566;28;20419;-86
2023/01/22 10:44:24;;;;;;;20.27;13.13;;;-1.10;99.90;;;;;;5118926;28;20394;-85
2023/01/22 10:46:51;;;;;;;20.30;12.57;;;-1.10;99.90;;;;;;5095027;28;20438;-86
2023/01/22 10:49:23;;;;;;;20.93;12.93;;;-1.20;99.90;;;;;;5095177;28;20418;-83
2023/01/22 10:51:53;;;;;;;18.13;11.80;;;-1.10;99.90;;;;;;5080345;28;20428;-85
2023/01/22 10:54:42;;;;;;;19.47;12.77;;;-1.00;99.90;;;;;;5080634;28;20410;-85
2023/01/22 10:57:32;;;;;;;18.47;12.07;;;-1.00;99.90;;;;;;5077572;28;20867;-79
2023/01/22 11:00:14;;;;;;;17.17;11.43;;;-1.30;99.90;;;;;;5110551;28;20959;-81
2023/01/22 11:02:42;;;;;;;17.90;11.17;;;-1.20;99.90;;;;;;5075906;28;20879;-79
2023/01/22 11:05:29;;;;;;;16.97;11.60;;;-1.20;99.90;;;;;;5075223;28;20492;-80
2023/01/22 11:08:02;;;;;;;14.23;9.97;;;-1.20;99.90;;;;;;5093677;28;20414;-83
2023/01/22 11:10:38;;;;;;;15.57;9.63;;;-1.10;99.90;;;;;;5094066;28;20457;-84
2023/01/22 11:13:22;;;;;;;18.87;12.13;;;-1.20;99.90;;;;;;5095666;28;21025;-84
2023/01/22 11:16:11;;;;;;;18.87;12.77;;;-1.20;99.90;;;;;;5094740;28;20395;-82
2023/01/22 11:18:48;;;;;;;19.73;11.40;;;-1.40;99.90;;;;;;5092221;28;20477;-83
2023/01/22 11:21:17;;;;;;;16.37;11.80;;;-1.20;99.90;;;;;;5097327;28;20494;-82
2023/01/22 11:24:22;;;;;;;17.53;12.27;;;-1.00;99.90;;;;;;5096876;28;20764;-82
2023/01/22 11:27:32;;;;;;;18.63;11.80;;;-0.70;99.90;;;;;;5114420;28;20443;-81
2023/01/22 11:30:06;;;;;;;19.17;12.40;;;-0.70;99.90;;;;;;5050076;28;20531;-81
2023/01/22 11:33:02;;;;;;;16.80;11.00;;;-0.60;99.90;;;;;;5049949;28;20491;-80
2023/01/22 11:35:56;;;;;;;16.20;11.53;;;-0.50;99.90;;;;;;5077459;28;20436;-80
2023/01/22 11:38:44;;;;;;;18.87;11.77;;;-0.50;99.90;;;;;;5083545;28;20461;-80
2023/01/22 11:41:21;;;;;;;19.17;10.80;;;-0.60;99.90;;;;;;5112708;28;20437;-81
2023/01/22 11:44:32;;;;;;;19.57;12.40;;;-0.60;99.90;;;;;;5092964;28;20434;-81
2023/01/22 11:47:33;;;;;;;17.27;11.47;;;-0.60;99.90;;;;;;5091546;28;20581;-81
2023/01/22 11:50:23;;;;;;;15.60;11.20;;;-0.80;99.90;;;;;;5065740;28;20450;-81
2023/01/22 11:53:26;;;;;;;18.60;11.90;;;-1.00;99.90;;;;;;5079036;28;20901;-82
2023/01/22 11:56:16;;;;;;;15.83;11.27;;;-0.90;99.90;;;;;;5096195;28;20856;-82
2023/01/22 11:59:16;;;;;;;17.80;12.93;;;-1.20;99.90;;;;;;5082020;28;20494;-80
2023/01/22 12:01:50;;;;;;;16.17;11.03;;;-1.30;99.90;;;;;;5078230;28;20415;-82
2023/01/22 12:05:06;;;;;;;16.13;11.70;;;-1.40;99.90;;;;;;5083041;28;20424;-82
2023/01/22 12:07:48;;;;;;;17.93;12.57;;;-1.40;99.90;;;;;;5083240;28;20445;-81
2023/01/22 12:10:42;;;;;;;16.80;11.53;;;-1.40;99.90;;;;;;5081153;28;20458;-82
2023/01/22 12:13:35;;;;;;;15.93;10.67;;;-1.60;99.90;;;;;;5079472;28;20416;-82
2023/01/22 12:16:19;;;;;;;18.17;11.17;;;-2.00;99.90;;;;;;5062346;28;20767;-82
2023/01/22 12:18:54;;;;;;;18.60;10.47;;;-1.90;99.90;;;;;;5094409;28;20522;-82
2023/01/22 12:21:20;;;;;;;14.80;10.73;;;-1.80;99.90;;;;;;5082037;28;20455;-82
2023/01/22 12:23:58;;;;;;;21.60;10.27;;;-1.80;99.90;;;;;;5101239;28;20425;-81
2023/01/22 12:26:34;;;;;;;16.33;10.63;;;-1.80;99.90;;;;;;5099774;28;20414;-83
2023/01/22 12:29:16;;;;;;;16.60;10.63;;;-1.90;99.90;;;;;;5082086;28;20510;-82
2023/01/22 12:33:18;;;;;;;16.07;10.93;;;-2.00;99.90;;;;;;5141725;27;20263;-80
2023/01/22 12:38:10;;;;;;;27.20;20.60;;;-1.80;99.90;;;;;;5136481;27;20282;-80
2023/01/22 12:43:55;;;;;;;22.03;15.30;;;-2.00;99.90;;;;;;5136497;27;20275;-81
2023/01/22 13:02:46;;;;;;;20.73;11.60;;;-1.90;99.90;;;;;;5116480;27;20367;-81
2023/01/22 13:10:03;;;;;;;18.10;10.13;;;;;;;;;;5030540;27;20296;-80
2023/01/22 13:14:41;;;;;;;17.00;10.53;;;;;;;;;;5140064;27;20267;-82
2023/01/22 13:20:00;;;;;;;26.10;11.90;;;-2.00;99.90;;;;;;5159858;27;20286;-82
2023/01/22 13:25:05;;;;;;;22.83;12.10;;;-2.20;99.90;;;;;;5140878;27;20269;-83
2023/01/22 13:30:32;;;;;;;20.97;12.50;;;-1.80;99.90;;;;;;5117484;27;20392;-84
2023/01/22 13:35:12;;;;;;;21.33;12.17;;;-1.70;99.90;;;;;;5146402;27;20334;-86
2023/01/22 13:40:23;;;;;;;18.87;11.17;;;-2.00;99.90;;;;;;5120639;27;20289;-84
2023/01/22 13:46:12;;;;;;;18.53;12.10;;;-2.10;99.90;;;;;;5115239;27;20367;-82
2023/01/22 13:50:20;;;;;;;15.00;10.33;;;-2.00;99.90;;;;;;5136820;27;20287;-80
2023/01/22 13:54:54;;;;;;;18.03;10.90;;;;;;;;;;5136271;27;20286;-82
2023/01/22 14:00:00;;;;;;;13.60;9.50;;;-1.90;99.90;;;;;;5136592;27;20666;-81
2023/01/22 14:05:00;;;;;;;16.03;9.70;;;-2.00;99.90;;;;;;5136177;27;20719;-80
2023/01/22 14:09:06;;;;;;;22.30;10.33;;;-1.80;99.90;;;;;;5114318;27;20726;-80
2023/01/22 14:13:09;;;;;;;17.07;9.73;;;-1.80;99.90;;;;;;5134642;27;20274;-79
2023/01/22 14:18:13;;;;;;;14.17;9.17;;;-1.80;99.90;;;;;;5116418;27;20543;-80
2023/01/22 14:20:40;;;;;;;18.57;11.27;;;-1.80;99.90;;;;;;5118154;28;20425;-80
2023/01/22 14:24:26;;;;;;;13.23;9.20;;;-2.00;99.90;;;;;;5120689;27;20268;-80
2023/01/22 14:28:53;;;;;;;19.40;11.83;;;-2.00;99.90;;;;;;5116844;27;20475;-80
2023/01/22 14:33:37;;;;;;;13.53;8.80;;;-2.00;99.90;;;;;;5117842;27;20548;-81
2023/01/22 14:37:48;;;;;;;15.43;8.67;;;-2.10;99.90;;;;;;5137792;27;20269;-81
2023/01/22 14:41:26;;;;;;;16.47;9.17;;;-2.20;99.90;;;;;;5116549;27;20282;-80
2023/01/22 14:45:20;;;;;;;14.83;9.27;;;-2.10;99.90;;;;;;5138178;27;20275;-82
2023/01/22 14:49:29;;;;;;;14.33;8.73;;;;;;;;;;5139094;27;20378;-82
2023/01/22 14:53:52;;;;;;;14.90;8.70;;;-1.90;99.90;;;;;;5139868;27;20267;-82
2023/01/22 14:57:48;;;;;;;11.90;7.60;;;-1.90;99.90;;;;;;5138007;27;20285;-81
2023/01/22 15:02:19;;;;;;;10.90;7.20;;;-1.80;99.90;;;;;;5138658;27;20687;-81
